Time;durP1;ratioP1;P1;durP2;ratioP2;P2;SDS_P1;SDS_P2;PMS_P1;PMS_P2;Temp;Humidity;BMP_temperature;BMP_pressure;BME280_temperature;BME280_humidity;BME280_pressure;Samples;Min_cycle;Max_cycle;Signal;HPM_P1;HPM_P2
2022/08/14 00:02:25;;;;;;;8.18;6.22;;;21.30;99.90;;;;;;5113507;27;20050;-72
2022/08/14 00:04:51;;;;;;;7.45;5.85;;;21.20;99.90;;;;;;5113268;28;20059;-71
2022/08/14 00:07:17;;;;;;;7.60;5.97;;;21.50;99.90;;;;;;5112601;28;20047;-72
2022/08/14 00:09:43;;;;;;;8.60;6.25;;;21.50;99.90;;;;;;5113000;28;20040;-71
2022/08/14 00:12:09;;;;;;;10.20;6.78;;;21.40;99.90;;;;;;5113265;28;20400;-72
2022/08/14 00:14:36;;;;;;;10.55;6.22;;;21.30;99.90;;;;;;5111925;28;20048;-70
2022/08/14 00:17:04;;;;;;;8.55;6.55;;;21.40;99.90;;;;;;5113413;28;20136;-70
2022/08/14 00:19:30;;;;;;;9.18;6.80;;;21.10;99.90;;;;;;5113544;28;20039;-70
2022/08/14 00:21:56;;;;;;;9.60;6.60;;;21.30;99.90;;;;;;5113008;28;20483;-71
2022/08/14 00:24:22;;;;;;;10.40;6.72;;;21.30;99.90;;;;;;5113108;28;20483;-72
2022/08/14 00:26:48;;;;;;;8.63;6.93;;;21.20;99.90;;;;;;5112916;27;20063;-72
2022/08/14 00:29:14;;;;;;;10.73;7.20;;;21.00;99.90;;;;;;5113259;28;20039;-72
2022/08/14 00:31:39;;;;;;;8.98;6.88;;;21.20;99.90;;;;;;5112793;28;20130;-72
2022/08/14 00:34:07;;;;;;;7.72;6.75;;;21.10;99.90;;;;;;5112684;28;20135;-71
2022/08/14 00:36:33;;;;;;;7.20;6.50;;;21.30;99.90;;;;;;5112761;28;20051;-70
2022/08/14 00:38:58;;;;;;;9.35;6.82;;;20.70;99.90;;;;;;5111517;28;20444;-71
2022/08/14 00:41:30;;;;;;;8.75;6.93;;;20.70;99.90;;;;;;5112680;28;20131;-70
2022/08/14 00:43:56;;;;;;;10.05;6.40;;;20.90;99.90;;;;;;5112876;28;20040;-71
2022/08/14 00:46:21;;;;;;;12.80;6.88;;;20.90;99.90;;;;;;5112808;28;20443;-71
2022/08/14 00:48:47;;;;;;;10.35;7.22;;;21.00;99.90;;;;;;5111202;28;20047;-72
2022/08/14 00:51:13;;;;;;;7.90;6.85;;;20.70;99.90;;;;;;5112682;28;20044;-72
2022/08/14 00:53:39;;;;;;;9.55;7.43;;;21.10;99.90;;;;;;5112347;28;20534;-70
2022/08/14 00:56:07;;;;;;;9.20;6.82;;;20.90;99.90;;;;;;5112710;27;20039;-72
2022/08/14 00:58:33;;;;;;;8.63;6.88;;;20.70;99.90;;;;;;5111620;28;20054;-72
2022/08/14 01:01:03;;;;;;;8.85;6.80;;;20.70;99.90;;;;;;5112585;28;20055;-71
2022/08/14 01:03:30;;;;;;;8.50;7.30;;;20.70;99.90;;;;;;5110964;28;20040;-72
2022/08/14 01:05:58;;;;;;;7.82;7.00;;;20.60;99.90;;;;;;5112276;28;20456;-71
2022/08/14 01:08:29;;;;;;;10.80;7.90;;;20.90;99.90;;;;;;5112302;28;20079;-70
2022/08/14 01:10:56;;;;;;;8.98;7.53;;;20.70;99.90;;;;;;5112296;28;20095;-71
2022/08/14 01:13:34;;;;;;;9.02;7.40;;;20.90;99.90;;;;;;5112284;28;20086;-72
2022/08/14 01:16:04;;;;;;;9.77;7.60;;;20.90;99.90;;;;;;5112437;28;20059;-70
2022/08/14 01:21:30;;;;;;;8.80;7.32;;;20.70;99.90;;;;;;5112500;28;20556;-71
2022/08/14 01:23:56;;;;;;;9.07;7.57;;;20.80;99.90;;;;;;5112233;28;20039;-70
2022/08/14 01:26:24;;;;;;;10.23;7.95;;;21.10;99.90;;;;;;5112192;28;20055;-70
2022/08/14 01:28:54;;;;;;;11.13;7.95;;;20.70;99.90;;;;;;5112065;28;20051;-72
2022/08/14 01:31:22;;;;;;;8.77;7.85;;;20.70;99.90;;;;;;5110798;28;20123;-71
2022/08/14 01:33:51;;;;;;;13.65;8.00;;;20.90;99.90;;;;;;5111540;28;20085;-73
2022/08/14 01:36:22;;;;;;;11.25;8.05;;;20.90;99.90;;;;;;5112119;28;20056;-69
2022/08/14 01:38:50;;;;;;;9.63;8.48;;;20.80;99.90;;;;;;5112229;28;20047;-71
2022/08/14 01:41:21;;;;;;;9.93;8.23;;;20.70;99.90;;;;;;5112035;28;20043;-72
2022/08/14 01:43:53;;;;;;;12.77;8.57;;;20.50;99.90;;;;;;5111941;28;20090;-72
2022/08/14 01:46:21;;;;;;;12.27;8.55;;;20.90;99.90;;;;;;5111085;28;20460;-71
2022/08/14 01:48:50;;;;;;;10.88;9.35;;;20.60;99.90;;;;;;5111727;28;20043;-72
2022/08/14 01:51:21;;;;;;;11.80;9.05;;;20.80;99.90;;;;;;5111892;28;20054;-70
2022/08/14 01:53:50;;;;;;;11.43;8.80;;;20.70;99.90;;;;;;5111878;28;20040;-73
2022/08/14 01:56:17;;;;;;;10.20;9.05;;;20.80;99.90;;;;;;5111864;28;20075;-72
2022/08/14 01:58:48;;;;;;;12.25;10.05;;;20.50;99.90;;;;;;5111820;28;20062;-71
2022/08/14 02:01:18;;;;;;;14.85;9.35;;;20.60;99.90;;;;;;5111738;28;20096;-72
2022/08/14 02:03:45;;;;;;;13.40;10.20;;;20.80;99.90;;;;;;5111942;28;20059;-71
2022/08/14 02:06:12;;;;;;;12.20;9.77;;;20.40;99.90;;;;;;5111747;28;20511;-71
2022/08/14 02:08:40;;;;;;;11.15;9.73;;;20.60;99.90;;;;;;5111921;28;20491;-72
2022/08/14 02:11:21;;;;;;;11.88;9.18;;;20.40;99.90;;;;;;5110652;28;20122;-71
2022/08/14 02:14:00;;;;;;;12.40;8.85;;;20.60;99.90;;;;;;5111892;28;20046;-69
2022/08/14 02:16:35;;;;;;;14.90;8.95;;;21.00;99.90;;;;;;5111484;28;20429;-72
2022/08/14 02:19:03;;;;;;;14.05;9.25;;;20.70;99.90;;;;;;5111696;28;20075;-72
2022/08/14 02:21:33;;;;;;;10.35;9.25;;;20.40;99.90;;;;;;5111910;28;20062;-72
2022/08/14 02:24:02;;;;;;;10.23;8.98;;;20.60;99.90;;;;;;5111531;28;20742;-70
2022/08/14 02:26:31;;;;;;;12.50;8.98;;;20.70;99.90;;;;;;5111741;28;20047;-70
2022/08/14 02:29:08;;;;;;;10.43;8.75;;;20.40;99.90;;;;;;5110512;28;20051;-72
2022/08/14 02:31:36;;;;;;;12.95;9.32;;;20.40;99.90;;;;;;5112872;28;20108;-71
2022/08/14 02:34:05;;;;;;;10.75;8.98;;;20.50;99.90;;;;;;5115397;28;20051;-72
2022/08/14 02:36:31;;;;;;;10.30;9.30;;;20.60;99.90;;;;;;5115330;28;20051;-72
2022/08/14 02:38:57;;;;;;;11.65;9.10;;;20.60;99.90;;;;;;5115273;28;20039;-73
2022/08/14 02:41:24;;;;;;;12.02;8.70;;;20.60;99.90;;;;;;5115132;28;20384;-74
2022/08/14 02:43:50;;;;;;;11.85;10.27;;;20.50;99.90;;;;;;5115135;28;20039;-73
2022/08/14 02:46:16;;;;;;;11.50;10.18;;;20.50;99.90;;;;;;5114596;28;20094;-71
2022/08/14 02:48:43;;;;;;;11.60;9.60;;;20.60;99.90;;;;;;5115164;28;20043;-72
2022/08/14 02:51:11;;;;;;;11.15;9.95;;;20.50;99.90;;;;;;5114825;28;20051;-73
2022/08/14 02:53:46;;;;;;;10.95;9.90;;;20.50;99.90;;;;;;5113580;28;20040;-73
2022/08/14 02:56:15;;;;;;;11.35;9.95;;;20.20;99.90;;;;;;5114960;28;20044;-72
2022/08/14 02:58:45;;;;;;;11.25;10.05;;;20.20;99.90;;;;;;5113493;28;20039;-72
2022/08/14 03:01:16;;;;;;;14.05;10.48;;;19.90;99.90;;;;;;5114720;28;20048;-71
2022/08/14 03:03:44;;;;;;;11.18;10.07;;;20.20;99.90;;;;;;5114722;28;20054;-72
2022/08/14 03:06:10;;;;;;;11.63;10.38;;;20.40;99.90;;;;;;5114776;28;20068;-70
2022/08/14 03:08:37;;;;;;;12.88;10.35;;;20.10;99.90;;;;;;5114663;28;20399;-72
2022/08/14 03:11:06;;;;;;;15.35;10.00;;;20.10;99.90;;;;;;5113320;28;20050;-72
2022/08/14 03:13:34;;;;;;;12.15;10.65;;;20.20;99.90;;;;;;5114334;28;20119;-71
2022/08/14 03:16:02;;;;;;;11.55;10.32;;;20.10;99.90;;;;;;5114472;28;20047;-72
2022/08/14 03:18:28;;;;;;;15.15;11.13;;;20.00;99.90;;;;;;5114317;28;20583;-72
2022/08/14 03:20:54;;;;;;;14.90;10.65;;;19.90;99.90;;;;;;5114342;28;20050;-72
2022/08/14 03:23:20;;;;;;;14.95;10.45;;;20.00;99.90;;;;;;5114407;28;20043;-73
2022/08/14 03:25:46;;;;;;;12.60;9.93;;;19.90;99.90;;;;;;5114197;28;20122;-72
2022/08/14 03:28:13;;;;;;;12.93;9.75;;;20.00;99.90;;;;;;5113736;28;20047;-72
2022/08/14 03:30:39;;;;;;;13.75;10.73;;;20.10;99.90;;;;;;5114358;28;20188;-73
2022/08/14 03:33:06;;;;;;;12.60;9.85;;;19.80;99.90;;;;;;5113945;27;20084;-71
2022/08/14 03:35:32;;;;;;;14.35;10.45;;;19.90;99.90;;;;;;5113874;28;20126;-72
2022/08/14 03:38:10;;;;;;;11.93;10.50;;;19.80;99.90;;;;;;5114004;28;20177;-73
2022/08/14 03:40:38;;;;;;;14.98;11.05;;;20.10;99.90;;;;;;5113871;28;20044;-72
2022/08/14 03:43:08;;;;;;;11.55;10.45;;;20.10;99.90;;;;;;5112520;28;20056;-71
2022/08/14 03:45:36;;;;;;;12.27;10.00;;;20.20;99.90;;;;;;5113956;28;20092;-72
2022/08/14 03:48:22;;;;;;;12.05;10.43;;;20.10;99.90;;;;;;5114019;28;20433;-70
2022/08/14 03:50:50;;;;;;;;;;;20.00;99.90;;;;;;5114231;28;20055;-71
2022/08/14 03:53:18;;;;;;;11.30;9.60;;;20.00;99.90;;;;;;5113620;28;19997;-72
2022/08/14 03:55:44;;;;;;;14.20;10.15;;;20.00;99.90;;;;;;5113734;28;20270;-72
2022/08/14 03:58:10;;;;;;;12.13;9.90;;;19.50;99.90;;;;;;5113352;28;20047;-73
2022/08/14 04:00:38;;;;;;;13.27;10.45;;;20.30;99.90;;;;;;5113764;28;20055;-71
2022/08/14 04:03:06;;;;;;;12.63;9.50;;;20.10;99.90;;;;;;5113689;28;20050;-72
2022/08/14 04:05:32;;;;;;;12.98;9.85;;;19.80;99.90;;;;;;5113502;28;20047;-70
2022/08/14 04:07:59;;;;;;;11.85;10.27;;;20.40;99.90;;;;;;5112267;28;20563;-69
2022/08/14 04:10:25;;;;;;;13.35;9.65;;;20.00;99.90;;;;;;5113625;28;20138;-70
2022/08/14 04:12:51;;;;;;;11.30;10.05;;;20.20;99.90;;;;;;5113156;28;20074;-73
2022/08/14 04:15:18;;;;;;;11.50;10.30;;;20.10;99.90;;;;;;5113308;28;20047;-72
2022/08/14 04:17:45;;;;;;;13.23;10.15;;;20.00;99.90;;;;;;5113266;28;20052;-72
2022/08/14 04:20:11;;;;;;;13.60;10.60;;;20.00;99.90;;;;;;5113201;28;20456;-73
2022/08/14 04:22:41;;;;;;;11.75;10.27;;;19.90;99.90;;;;;;5113102;28;20499;-71
2022/08/14 04:25:07;;;;;;;11.63;10.43;;;20.00;99.90;;;;;;5113254;28;20108;-71
2022/08/14 04:27:34;;;;;;;12.35;9.90;;;19.80;99.90;;;;;;5112980;28;20083;-72
2022/08/14 04:30:01;;;;;;;12.32;10.23;;;20.00;99.90;;;;;;5113012;28;20067;-72
2022/08/14 04:32:27;;;;;;;12.70;10.88;;;20.20;99.90;;;;;;5112934;28;20059;-72
2022/08/14 04:34:55;;;;;;;15.20;10.43;;;20.00;99.90;;;;;;5112599;28;20051;-72
2022/08/14 04:45:40;;;;;;;11.93;10.65;;;20.00;99.90;;;;;;5112957;28;20564;-70
2022/08/14 04:48:12;;;;;;;12.00;10.80;;;19.80;99.90;;;;;;5112756;28;20051;-72
2022/08/14 04:50:50;;;;;;;11.90;10.45;;;20.00;99.90;;;;;;5112759;28;20051;-72
2022/08/14 04:53:20;;;;;;;14.07;10.40;;;20.10;99.90;;;;;;5112608;28;20047;-72
2022/08/14 04:55:48;;;;;;;11.90;10.70;;;20.50;99.90;;;;;;5111980;28;20043;-72
2022/08/14 04:58:16;;;;;;;15.05;10.77;;;19.90;99.90;;;;;;5112703;28;20100;-72
2022/08/14 05:00:43;;;;;;;14.52;10.60;;;20.10;99.90;;;;;;5111478;28;20096;-72
2022/08/14 05:03:09;;;;;;;15.20;10.25;;;20.10;99.90;;;;;;5112575;28;20051;-73
2022/08/14 05:05:35;;;;;;;15.20;10.68;;;19.90;99.90;;;;;;5111378;28;20112;-73
2022/08/14 05:08:13;;;;;;;19.33;11.25;;;20.00;99.90;;;;;;5112376;28;20122;-72
2022/08/14 05:10:44;;;;;;;14.27;11.05;;;20.20;99.90;;;;;;5111147;28;20050;-73
2022/08/14 05:13:11;;;;;;;14.27;11.38;;;20.10;99.90;;;;;;5112349;28;20715;-70
2022/08/14 05:15:38;;;;;;;13.27;10.80;;;20.40;99.90;;;;;;5112393;28;20047;-72
2022/08/14 05:18:12;;;;;;;17.35;12.45;;;20.30;99.90;;;;;;5112264;28;20098;-72
2022/08/14 05:20:44;;;;;;;16.33;11.40;;;20.20;99.90;;;;;;5112289;28;20088;-71
2022/08/14 05:23:15;;;;;;;13.45;11.32;;;20.40;99.90;;;;;;5112131;28;20134;-71
2022/08/14 05:25:41;;;;;;;14.07;11.98;;;20.40;99.90;;;;;;5111951;28;20048;-70
2022/08/14 05:28:09;;;;;;;20.00;11.68;;;20.60;99.90;;;;;;5112285;28;20087;-70
2022/08/14 05:30:35;;;;;;;13.13;11.57;;;20.40;99.90;;;;;;5112113;28;20087;-73
2022/08/14 05:33:01;;;;;;;17.92;12.50;;;20.50;99.90;;;;;;5110502;28;20411;-72
2022/08/14 05:35:27;;;;;;;15.13;12.85;;;20.40;99.90;;;;;;5111958;28;20062;-72
2022/08/14 05:37:52;;;;;;;15.70;12.05;;;20.50;99.90;;;;;;5112080;28;20059;-71
2022/08/14 05:40:18;;;;;;;14.18;12.18;;;20.30;99.90;;;;;;5111753;28;20083;-71
2022/08/14 05:42:44;;;;;;;13.80;12.32;;;20.60;99.90;;;;;;5110738;28;20159;-72
2022/08/14 05:45:10;;;;;;;13.35;12.00;;;20.50;99.90;;;;;;5111955;28;20065;-69
2022/08/14 05:47:40;;;;;;;14.82;12.82;;;20.60;99.90;;;;;;5112054;28;20854;-71
2022/08/14 05:50:11;;;;;;;18.27;12.80;;;20.70;99.90;;;;;;5112056;28;20476;-71
2022/08/14 05:52:37;;;;;;;13.48;12.18;;;20.50;99.90;;;;;;5112361;28;20544;-72
2022/08/14 05:55:04;;;;;;;15.43;12.05;;;20.70;99.90;;;;;;5111867;28;20040;-71
2022/08/14 05:57:30;;;;;;;12.70;11.38;;;20.90;99.90;;;;;;5112013;28;20100;-72
2022/08/14 05:59:55;;;;;;;16.63;12.10;;;21.30;99.90;;;;;;5111966;28;20043;-69
2022/08/14 06:02:21;;;;;;;14.52;11.70;;;20.90;99.90;;;;;;5111711;28;20051;-72
2022/08/14 06:04:47;;;;;;;13.82;11.55;;;21.20;99.90;;;;;;5086179;28;20527;-68
2022/08/14 06:07:16;;;;;;;13.90;11.40;;;21.40;99.90;;;;;;5091558;28;20055;-70
2022/08/14 06:09:42;;;;;;;13.82;11.25;;;21.20;99.90;;;;;;5093549;28;20059;-70
2022/08/14 06:12:08;;;;;;;13.50;10.80;;;21.30;99.90;;;;;;5092517;28;20430;-71
2022/08/14 06:14:34;;;;;;;14.20;10.80;;;21.50;99.90;;;;;;5092657;28;20517;-71
2022/08/14 06:17:00;;;;;;;13.00;11.60;;;21.40;99.90;;;;;;5093332;28;20168;-72
2022/08/14 06:19:26;;;;;;;13.02;11.00;;;21.50;99.90;;;;;;5094598;28;20083;-72
2022/08/14 06:21:52;;;;;;;14.18;11.20;;;21.90;99.90;;;;;;5095219;28;20052;-70
2022/08/14 06:24:19;;;;;;;14.52;11.95;;;21.60;99.90;;;;;;5094769;28;20044;-72
2022/08/14 06:26:45;;;;;;;13.23;11.52;;;21.70;99.90;;;;;;5095036;28;20052;-73
2022/08/14 06:29:11;;;;;;;15.90;11.27;;;22.30;99.90;;;;;;5095034;28;20291;-71
2022/08/14 06:31:37;;;;;;;14.55;11.70;;;22.40;99.90;;;;;;5092123;28;20567;-71
2022/08/14 06:34:03;;;;;;;12.90;11.60;;;22.10;99.90;;;;;;5092123;28;20381;-71
2022/08/14 06:36:29;;;;;;;12.77;10.65;;;22.50;99.90;;;;;;5093390;28;20052;-72
2022/08/14 06:38:55;;;;;;;12.40;10.65;;;21.90;99.90;;;;;;5093083;28;20403;-70
2022/08/14 06:41:22;;;;;;;13.77;11.02;;;22.30;99.90;;;;;;5092173;28;20194;-72
2022/08/14 06:43:48;;;;;;;12.70;10.55;;;22.40;99.90;;;;;;5093269;28;20055;-71
2022/08/14 06:46:14;;;;;;;12.13;10.90;;;22.40;99.90;;;;;;5092205;28;20404;-70
2022/08/14 06:48:39;;;;;;;15.23;10.70;;;22.60;99.90;;;;;;5092633;28;20073;-69
2022/08/14 06:51:05;;;;;;;12.40;11.20;;;22.90;99.90;;;;;;5093050;28;20058;-72
2022/08/14 06:53:31;;;;;;;12.38;10.80;;;22.60;99.90;;;;;;5092687;28;20040;-68
2022/08/14 06:55:57;;;;;;;14.75;10.38;;;22.60;99.90;;;;;;5094632;28;20439;-69
2022/08/14 06:58:22;;;;;;;11.40;9.98;;;22.60;99.90;;;;;;5094399;28;20123;-73
2022/08/14 07:06:18;;;;;;;14.38;10.50;;;22.90;99.90;;;;;;5094140;28;20135;-71
2022/08/14 07:08:44;;;;;;;12.10;9.00;;;23.00;99.90;;;;;;5094346;28;20055;-70
2022/08/14 07:11:11;;;;;;;12.90;10.00;;;23.10;99.90;;;;;;5094051;28;20119;-69
2022/08/14 07:13:37;;;;;;;12.02;9.68;;;23.20;99.90;;;;;;5094256;28;20086;-71
2022/08/14 07:16:04;;;;;;;12.10;9.63;;;23.30;99.90;;;;;;5094001;28;20566;-71
2022/08/14 07:18:31;;;;;;;12.85;9.80;;;23.60;99.90;;;;;;5093904;28;20051;-70
2022/08/14 07:20:59;;;;;;;14.30;9.68;;;23.70;99.90;;;;;;5093825;28;20064;-70
2022/08/14 07:23:25;;;;;;;13.50;9.13;;;23.50;99.90;;;;;;5093899;28;20047;-66
2022/08/14 07:25:53;;;;;;;11.55;9.20;;;23.80;99.90;;;;;;5093884;28;20051;-70
2022/08/14 07:28:22;;;;;;;13.00;9.00;;;24.00;99.90;;;;;;5093921;28;20489;-68
2022/08/14 07:30:49;;;;;;;10.20;9.25;;;23.90;99.90;;;;;;5089969;28;20072;-76
2022/08/14 07:33:15;;;;;;;9.35;8.40;;;23.30;99.90;;;;;;5091436;28;20091;-67
2022/08/14 07:35:41;;;;;;;12.77;9.43;;;24.00;99.90;;;;;;5093370;28;20078;-71
2022/08/14 07:38:07;;;;;;;10.25;8.45;;;24.00;99.90;;;;;;5093755;28;20048;-68
2022/08/14 07:40:34;;;;;;;10.55;8.38;;;24.30;99.90;;;;;;5093657;28;20066;-73
2022/08/14 07:43:00;;;;;;;12.18;8.75;;;24.30;99.90;;;;;;5091913;28;20051;-71
2022/08/14 07:45:27;;;;;;;10.13;9.07;;;24.40;99.90;;;;;;5093475;28;20471;-71
2022/08/14 07:47:55;;;;;;;8.75;7.82;;;24.30;99.90;;;;;;5093378;28;20056;-72
2022/08/14 07:50:20;;;;;;;10.73;8.95;;;24.30;99.90;;;;;;5092160;28;20105;-67
2022/08/14 07:52:48;;;;;;;12.20;8.95;;;24.90;99.90;;;;;;5093315;28;20048;-68
2022/08/14 07:55:16;;;;;;;9.43;8.43;;;24.70;99.90;;;;;;5093034;28;20471;-70
2022/08/14 07:57:43;;;;;;;12.52;8.55;;;25.00;99.90;;;;;;5093613;28;20051;-73
2022/08/14 08:00:15;;;;;;;13.55;8.35;;;25.40;99.90;;;;;;5093318;28;20052;-70
2022/08/14 08:02:43;;;;;;;12.60;8.25;;;24.90;99.90;;;;;;5091648;28;20055;-72
2022/08/14 08:05:11;;;;;;;12.18;8.65;;;24.90;99.90;;;;;;5093065;28;20436;-67
2022/08/14 08:07:38;;;;;;;10.20;8.10;;;25.20;99.90;;;;;;5092964;28;20044;-69
2022/08/14 08:12:56;;;;;;;10.48;7.97;;;25.40;99.90;;;;;;5092908;28;20086;-70
2022/08/14 08:15:26;;;;;;;9.20;7.40;;;25.70;99.90;;;;;;5092798;28;20062;-69
2022/08/14 08:17:53;;;;;;;10.73;7.90;;;26.10;99.90;;;;;;5092913;28;20040;-69
2022/08/14 08:20:25;;;;;;;11.02;6.80;;;25.90;99.90;;;;;;5092370;28;20480;-71
2022/08/14 08:22:55;;;;;;;9.63;7.00;;;25.50;99.90;;;;;;5093081;28;20046;-67
2022/08/14 08:25:21;;;;;;;15.52;7.90;;;26.00;99.90;;;;;;5092783;28;20040;-71
2022/08/14 08:27:59;;;;;;;7.20;6.50;;;25.60;99.90;;;;;;5091707;28;20172;-68
2022/08/14 08:30:27;;;;;;;7.85;7.05;;;26.00;99.90;;;;;;5091728;28;20101;-71
2022/08/14 08:32:55;;;;;;;10.60;7.13;;;26.10;99.90;;;;;;5092052;28;20745;-70
2022/08/14 08:35:25;;;;;;;8.73;7.28;;;26.10;99.90;;;;;;5091396;28;20063;-72
2022/08/14 08:37:53;;;;;;;10.38;7.00;;;26.20;99.90;;;;;;5092650;28;20059;-68
2022/08/14 08:40:40;;;;;;;7.90;7.13;;;26.60;99.90;;;;;;5091711;28;20410;-70
2022/08/14 08:43:22;;;;;;;9.32;6.72;;;26.70;99.90;;;;;;5092255;28;20036;-66
2022/08/14 08:46:00;;;;;;;8.88;6.53;;;26.60;99.90;;;;;;5092144;28;20047;-73
2022/08/14 08:48:28;;;;;;;9.85;6.43;;;26.60;99.90;;;;;;5091702;28;20135;-73
2022/08/14 08:51:00;;;;;;;8.38;6.43;;;26.60;99.90;;;;;;5092343;28;20135;-70
2022/08/14 08:53:33;;;;;;;9.30;6.80;;;27.00;99.90;;;;;;5092039;28;20115;-67
2022/08/14 08:55:59;;;;;;;7.45;6.32;;;26.90;99.90;;;;;;5092073;28;20047;-69
2022/08/14 08:58:25;;;;;;;7.80;6.20;;;26.90;99.90;;;;;;5092101;28;20044;-73
2022/08/14 09:00:55;;;;;;;9.20;6.30;;;27.00;99.90;;;;;;5090744;28;20104;-70
2022/08/14 09:03:25;;;;;;;7.82;6.10;;;27.30;99.90;;;;;;5091820;28;20047;-70
2022/08/14 09:05:57;;;;;;;8.43;6.03;;;27.00;99.90;;;;;;5092109;28;20048;-68
2022/08/14 09:08:25;;;;;;;10.02;6.28;;;27.20;99.90;;;;;;5092095;28;20051;-72
2022/08/14 09:10:52;;;;;;;7.43;6.72;;;27.40;99.90;;;;;;5092199;28;20051;-66
2022/08/14 09:13:19;;;;;;;6.85;5.80;;;27.40;99.90;;;;;;5091799;28;20131;-71
2022/08/14 09:15:47;;;;;;;7.50;6.07;;;27.60;99.90;;;;;;5090174;28;20499;-71
2022/08/14 09:18:15;;;;;;;9.70;6.30;;;27.70;99.90;;;;;;5091723;28;20059;-68
2022/08/14 09:20:44;;;;;;;10.52;6.28;;;27.60;99.90;;;;;;5091886;28;20058;-67
2022/08/14 09:23:11;;;;;;;8.05;5.97;;;27.80;99.90;;;;;;5091047;28;20051;-70
2022/08/14 09:25:40;;;;;;;8.40;5.88;;;27.60;99.90;;;;;;5091867;28;20130;-69
2022/08/14 09:28:06;;;;;;;9.40;5.80;;;27.80;99.90;;;;;;5092117;28;20048;-72
2022/08/14 09:30:36;;;;;;;6.65;6.00;;;27.90;99.90;;;;;;5091471;28;20048;-70
2022/08/14 09:33:01;;;;;;;7.55;5.30;;;28.00;99.90;;;;;;5091792;28;20419;-68
2022/08/14 09:35:30;;;;;;;8.63;6.35;;;27.80;99.90;;;;;;5073900;28;20048;-71
2022/08/14 09:38:08;;;;;;;6.55;5.88;;;27.90;99.90;;;;;;5097850;28;20518;-70
2022/08/14 09:40:52;;;;;;;10.23;6.57;;;28.00;99.90;;;;;;5112140;28;20047;-71
2022/08/14 09:43:21;;;;;;;6.70;6.05;;;28.20;99.90;;;;;;5114865;28;20113;-73
2022/08/14 09:45:49;;;;;;;6.13;5.50;;;27.90;99.90;;;;;;5115909;28;20043;-67
2022/08/14 09:48:19;;;;;;;8.63;4.97;;;28.10;99.90;;;;;;5116194;28;20062;-67
2022/08/14 09:50:50;;;;;;;7.10;5.70;;;28.20;99.90;;;;;;5094185;28;20063;-68
2022/08/14 09:53:36;;;;;;;7.18;5.25;;;28.30;99.90;;;;;;5114952;28;20051;-70
2022/08/14 09:56:03;;;;;;;8.00;4.93;;;28.10;99.90;;;;;;5115939;28;20552;-71
2022/08/14 09:58:43;;;;;;;7.75;5.82;;;28.30;99.90;;;;;;5116224;28;20054;-70
2022/08/14 10:01:13;;;;;;;6.40;5.18;;;28.40;99.90;;;;;;5115625;28;20499;-72
2022/08/14 10:03:49;;;;;;;6.03;5.38;;;28.00;99.90;;;;;;5114644;28;20040;-70
2022/08/14 10:06:44;;;;;;;8.93;5.57;;;28.40;99.90;;;;;;5115989;28;20066;-73
2022/08/14 10:09:10;;;;;;;5.63;5.10;;;28.60;99.90;;;;;;5114534;27;20069;-72
2022/08/14 10:11:37;;;;;;;7.80;5.30;;;28.60;99.90;;;;;;5115851;28;20069;-71
2022/08/14 10:14:23;;;;;;;5.72;5.03;;;28.90;99.90;;;;;;5115616;28;20122;-68
2022/08/14 10:16:52;;;;;;;;;;;28.80;99.90;;;;;;5116075;28;20130;-73
2022/08/14 10:19:18;;;;;;;5.97;5.47;;;28.80;99.90;;;;;;5115627;28;20429;-66
2022/08/14 10:22:01;;;;;;;5.63;5.13;;;29.00;99.90;;;;;;5115607;28;20203;-73
2022/08/14 10:24:29;;;;;;;7.57;5.25;;;29.00;99.90;;;;;;5115670;28;20057;-71
2022/08/14 10:26:57;;;;;;;5.40;4.70;;;29.10;99.90;;;;;;5115287;28;20521;-71
2022/08/14 10:29:34;;;;;;;5.82;4.75;;;29.40;99.90;;;;;;5115000;28;20498;-70
2022/08/14 10:32:00;;;;;;;5.30;4.80;;;29.20;99.90;;;;;;5115640;28;20049;-72
2022/08/14 10:34:33;;;;;;;6.80;4.85;;;29.20;99.90;;;;;;5115341;28;20411;-75
2022/08/14 10:37:11;;;;;;;7.53;5.47;;;29.40;99.90;;;;;;5115392;28;20077;-66
2022/08/14 10:39:41;;;;;;;5.30;4.80;;;29.20;99.90;;;;;;5115249;27;20050;-70
2022/08/14 10:42:10;;;;;;;5.60;5.00;;;29.30;99.90;;;;;;5115146;28;20126;-71
2022/08/14 10:44:47;;;;;;;6.18;5.20;;;29.40;99.90;;;;;;5114829;28;20122;-70
2022/08/14 10:47:17;;;;;;;5.95;5.35;;;29.30;99.90;;;;;;5115222;28;20519;-71
2022/08/14 10:49:59;;;;;;;6.07;4.95;;;29.50;99.90;;;;;;5115167;28;20130;-71
2022/08/14 10:52:29;;;;;;;9.95;4.63;;;29.70;99.90;;;;;;5114136;28;20084;-72
2022/08/14 10:55:12;;;;;;;8.55;5.07;;;29.80;99.90;;;;;;5115127;28;20051;-69
2022/08/14 10:57:49;;;;;;;5.82;5.20;;;29.60;99.90;;;;;;5114210;28;20044;-68
2022/08/14 11:00:18;;;;;;;6.90;5.00;;;29.50;99.90;;;;;;5114781;28;20056;-71
2022/08/14 11:02:44;;;;;;;6.55;4.95;;;29.60;99.90;;;;;;5096618;28;20852;-68
2022/08/14 11:05:17;;;;;;;5.43;4.90;;;29.60;99.90;;;;;;5091605;28;20601;-71
2022/08/14 11:07:54;;;;;;;6.47;5.28;;;29.70;99.70;;;;;;5094435;28;20048;-72
2022/08/14 11:10:26;;;;;;;7.25;5.65;;;29.70;99.90;;;;;;5094148;28;20056;-76
2022/08/14 11:12:55;;;;;;;5.90;5.30;;;29.50;99.60;;;;;;5093691;28;20377;-77
2022/08/14 11:15:26;;;;;;;5.90;5.40;;;30.10;99.90;;;;;;5094119;28;20055;-74
2022/08/14 11:17:52;;;;;;;6.15;5.55;;;29.80;99.90;;;;;;5093661;28;20090;-74
2022/08/14 11:20:28;;;;;;;9.23;5.50;;;29.80;99.90;;;;;;5093947;28;20372;-68
2022/08/14 11:22:57;;;;;;;7.60;5.25;;;30.00;99.90;;;;;;5094165;28;20052;-69
2022/08/14 11:25:28;;;;;;;9.77;5.40;;;29.90;99.80;;;;;;5093274;28;20058;-71
2022/08/14 11:27:55;;;;;;;6.80;5.88;;;29.80;99.90;;;;;;5093439;28;20415;-69
2022/08/14 11:30:27;;;;;;;5.32;4.70;;;29.90;99.90;;;;;;5093900;28;20097;-72
2022/08/14 11:32:55;;;;;;;8.00;4.82;;;30.20;99.00;;;;;;5093439;28;20055;-75
2022/08/14 11:35:25;;;;;;;6.88;4.80;;;30.10;98.90;;;;;;5093539;28;20036;-70
2022/08/14 11:37:53;;;;;;;5.47;4.95;;;30.20;98.90;;;;;;5093831;28;20044;-70
2022/08/14 11:40:22;;;;;;;6.13;4.70;;;30.30;99.00;;;;;;5093443;28;20055;-76
2022/08/14 11:42:49;;;;;;;7.75;4.68;;;30.10;98.80;;;;;;5093460;28;20048;-69
2022/08/14 11:45:15;;;;;;;5.13;4.70;;;30.70;98.90;;;;;;5093303;28;20040;-69
2022/08/14 11:47:42;;;;;;;5.95;5.07;;;30.60;98.40;;;;;;5093249;28;20043;-77
2022/08/14 11:50:16;;;;;;;6.00;4.75;;;30.40;98.80;;;;;;5093668;28;20052;-69
2022/08/14 11:52:43;;;;;;;5.38;4.70;;;30.40;98.40;;;;;;5093621;28;20056;-77
2022/08/14 11:55:12;;;;;;;6.35;4.40;;;30.80;98.70;;;;;;5106596;28;20047;-67
2022/08/14 11:57:44;;;;;;;5.70;4.97;;;30.80;98.70;;;;;;5097225;28;20044;-72
2022/08/14 12:00:16;;;;;;;6.07;4.97;;;30.50;98.00;;;;;;5093279;28;20123;-72
2022/08/14 12:02:53;;;;;;;5.35;4.60;;;30.90;98.40;;;;;;5093171;28;20077;-70
2022/08/14 12:05:32;;;;;;;6.55;4.63;;;30.90;98.30;;;;;;5092085;28;20115;-72
2022/08/14 12:07:59;;;;;;;6.13;5.10;;;29.80;97.20;;;;;;5093321;28;20083;-74
2022/08/14 12:10:25;;;;;;;7.10;5.10;;;31.10;98.40;;;;;;5091576;28;20883;-69
2022/08/14 12:12:55;;;;;;;5.60;4.80;;;31.20;98.10;;;;;;5093142;28;20055;-69
2022/08/14 12:15:34;;;;;;;5.93;4.90;;;31.20;97.50;;;;;;5092820;28;20738;-69
2022/08/14 12:18:00;;;;;;;9.48;5.05;;;31.30;98.00;;;;;;5092880;28;20115;-70
2022/08/14 12:20:32;;;;;;;8.15;4.60;;;31.10;97.80;;;;;;5092739;28;20126;-74
2022/08/14 12:23:04;;;;;;;7.00;5.13;;;31.50;97.70;;;;;;5092655;28;20080;-72
2022/08/14 12:25:30;;;;;;;7.18;4.68;;;31.70;97.50;;;;;;5089735;28;20094;-74
2022/08/14 12:27:59;;;;;;;7.38;4.50;;;31.50;97.20;;;;;;5092276;28;20052;-72
2022/08/14 12:30:34;;;;;;;7.68;4.85;;;31.70;97.30;;;;;;5092161;28;20067;-70
2022/08/14 12:33:02;;;;;;;5.17;4.73;;;32.00;97.00;;;;;;5092002;28;20055;-70
2022/08/14 12:35:44;;;;;;;8.35;4.80;;;31.60;96.80;;;;;;5092175;28;20117;-69
2022/08/14 12:38:12;;;;;;;4.93;4.45;;;31.60;95.90;;;;;;5089743;28;20048;-70
2022/08/14 12:40:47;;;;;;;6.65;4.85;;;31.70;95.80;;;;;;5092051;28;20040;-71
2022/08/14 12:43:16;;;;;;;5.15;4.53;;;31.90;95.80;;;;;;5089018;28;20028;-71
2022/08/14 12:45:53;;;;;;;5.63;5.00;;;31.80;96.10;;;;;;5092015;28;20048;-68
2022/08/14 12:48:21;;;;;;;6.60;4.85;;;31.90;95.50;;;;;;5089468;28;20084;-66
2022/08/14 12:50:51;;;;;;;6.90;4.40;;;32.20;95.50;;;;;;5091884;28;20411;-69
2022/08/14 12:53:18;;;;;;;5.90;5.30;;;32.10;96.20;;;;;;5092004;28;20051;-73
2022/08/14 12:55:56;;;;;;;5.95;4.72;;;31.80;96.20;;;;;;5092141;28;20051;-70
2022/08/14 12:58:27;;;;;;;6.25;5.30;;;32.20;95.90;;;;;;5092329;28;20063;-74
2022/08/14 13:00:55;;;;;;;4.97;4.53;;;31.60;94.50;;;;;;5091344;28;20052;-69
2022/08/14 13:03:28;;;;;;;5.00;4.50;;;32.00;94.80;;;;;;5091178;28;20058;-73
2022/08/14 13:05:55;;;;;;;5.75;4.88;;;31.80;95.20;;;;;;5092024;28;20531;-74
2022/08/14 13:08:21;;;;;;;6.65;4.57;;;32.00;95.50;;;;;;5091797;28;20043;-75